Time;durP1;ratioP1;P1;durP2;ratioP2;P2;SDS_P1;SDS_P2;PMS_P1;PMS_P2;Temp;Humidity;BMP_temperature;BMP_pressure;BME280_temperature;BME280_humidity;BME280_pressure;Samples;Min_cycle;Max_cycle;Signal;HPM_P1;HPM_P2
2023/03/16 00:02:08;;;;;;;9.45;5.53;;;11.70;99.90;;;;;;4934998;28;20055;-76
2023/03/16 00:04:36;;;;;;;14.10;5.75;;;11.70;99.90;;;;;;4934224;29;20043;-76
2023/03/16 00:07:07;;;;;;;9.20;5.72;;;11.60;99.90;;;;;;4918289;29;20019;-76
2023/03/16 00:09:33;;;;;;;11.52;5.28;;;11.60;99.90;;;;;;4934007;29;20038;-76
2023/03/16 00:12:01;;;;;;;13.57;6.28;;;11.60;99.90;;;;;;4940681;29;20031;-77
2023/03/16 00:14:28;;;;;;;9.85;5.50;;;11.70;99.90;;;;;;4937670;29;20023;-77
2023/03/16 00:16:54;;;;;;;9.77;5.70;;;11.60;99.90;;;;;;4952640;28;20039;-76
2023/03/16 00:19:23;;;;;;;18.55;9.35;;;11.60;99.90;;;;;;4937407;29;20034;-76
2023/03/16 00:21:52;;;;;;;7.85;5.30;;;11.60;99.90;;;;;;4952850;29;20035;-76
2023/03/16 00:24:19;;;;;;;12.90;6.45;;;11.50;99.90;;;;;;4953066;29;20099;-76
2023/03/16 00:26:48;;;;;;;9.90;6.22;;;11.30;99.90;;;;;;4937233;29;20384;-76
2023/03/16 00:29:14;;;;;;;13.85;7.15;;;11.30;99.90;;;;;;4954170;29;20038;-76
2023/03/16 00:31:44;;;;;;;8.95;5.50;;;11.40;99.90;;;;;;4946305;28;20032;-76
2023/03/16 00:34:10;;;;;;;13.43;5.63;;;11.40;99.90;;;;;;4918538;29;20047;-76
2023/03/16 00:36:37;;;;;;;23.85;14.00;;;11.30;99.90;;;;;;4918062;29;20032;-76
2023/03/16 00:39:06;;;;;;;16.60;8.40;;;11.30;99.90;;;;;;4938740;29;20036;-76
2023/03/16 00:41:36;;;;;;;13.75;7.82;;;11.30;99.90;;;;;;4937736;29;20043;-77
2023/03/16 00:44:08;;;;;;;11.73;5.28;;;11.20;99.90;;;;;;4937910;29;20381;-76
2023/03/16 00:46:34;;;;;;;9.90;5.88;;;11.30;99.90;;;;;;4937263;28;20036;-77
2023/03/16 00:49:01;;;;;;;9.13;5.85;;;11.20;99.90;;;;;;4921553;29;20031;-76
2023/03/16 00:51:28;;;;;;;12.85;6.15;;;11.20;99.90;;;;;;4937626;29;20381;-76
2023/03/16 00:53:55;;;;;;;11.38;5.72;;;11.20;99.90;;;;;;4937396;29;20032;-76
2023/03/16 00:56:21;;;;;;;12.20;6.43;;;11.10;99.90;;;;;;4938548;29;20031;-76
2023/03/16 00:58:47;;;;;;;11.73;5.50;;;10.90;99.90;;;;;;4906358;29;20044;-76
2023/03/16 01:01:15;;;;;;;16.98;10.05;;;10.80;99.90;;;;;;4938116;28;20044;-76
2023/03/16 01:03:41;;;;;;;20.67;10.32;;;10.80;99.90;;;;;;4921188;29;20042;-76
2023/03/16 01:06:12;;;;;;;12.23;5.72;;;11.00;99.90;;;;;;4937556;29;20062;-76
2023/03/16 01:08:39;;;;;;;18.92;6.55;;;10.90;99.90;;;;;;4938375;29;20023;-76
2023/03/16 01:11:07;;;;;;;14.13;6.60;;;10.70;99.90;;;;;;4937162;29;20043;-77
2023/03/16 01:13:33;;;;;;;18.55;11.00;;;10.70;99.90;;;;;;4954891;29;20034;-76
2023/03/16 01:15:59;;;;;;;11.25;6.97;;;10.70;99.90;;;;;;4939864;28;20031;-76
2023/03/16 01:18:26;;;;;;;11.52;5.78;;;10.80;99.90;;;;;;4955958;29;20503;-77
2023/03/16 01:20:52;;;;;;;8.32;5.53;;;10.90;99.90;;;;;;4956294;29;20027;-77
2023/03/16 01:23:19;;;;;;;12.35;5.50;;;10.80;99.90;;;;;;4956203;29;20495;-76
2023/03/16 01:25:53;;;;;;;9.35;5.50;;;10.90;99.90;;;;;;4940232;29;20054;-77
2023/03/16 01:28:20;;;;;;;9.25;5.28;;;10.80;99.90;;;;;;4956194;29;20469;-76
2023/03/16 01:30:46;;;;;;;7.45;5.05;;;10.80;99.90;;;;;;4955683;28;20043;-76
2023/03/16 01:33:12;;;;;;;5.88;4.60;;;10.80;99.90;;;;;;4937241;29;20048;-76
2023/03/16 01:35:38;;;;;;;12.50;5.20;;;10.70;99.90;;;;;;4937946;29;20183;-76
2023/03/16 01:38:04;;;;;;;7.60;4.70;;;10.60;99.90;;;;;;4937781;29;20035;-76
2023/03/16 01:40:30;;;;;;;7.15;4.53;;;10.60;99.90;;;;;;4936680;29;20032;-76
2023/03/16 01:43:01;;;;;;;6.90;4.93;;;10.70;99.90;;;;;;4936534;29;20481;-77
2023/03/16 01:46:01;;;;;;;6.25;4.88;;;10.80;99.90;;;;;;4936114;28;20048;-76
2023/03/16 01:48:27;;;;;;;10.57;5.30;;;10.40;99.90;;;;;;4937038;29;20034;-77
2023/03/16 01:50:53;;;;;;;7.68;5.10;;;10.40;99.90;;;;;;4920319;29;20074;-76
2023/03/16 01:53:20;;;;;;;11.52;5.70;;;10.20;99.90;;;;;;4937532;29;20042;-76
2023/03/16 01:55:47;;;;;;;14.82;6.15;;;10.10;99.90;;;;;;4937599;29;20040;-76
2023/03/16 01:58:13;;;;;;;15.95;5.95;;;10.10;99.90;;;;;;4904944;29;20053;-76
2023/03/16 02:00:40;;;;;;;12.05;5.78;;;10.00;99.90;;;;;;4920213;28;20039;-76
2023/03/16 02:03:12;;;;;;;9.13;5.20;;;9.80;99.90;;;;;;4937057;29;20496;-76
2023/03/16 02:06:00;;;;;;;8.43;5.18;;;10.00;99.90;;;;;;4936167;29;20066;-77
2023/03/16 02:08:26;;;;;;;10.40;5.55;;;10.10;99.90;;;;;;4936255;29;20032;-77
2023/03/16 02:10:53;;;;;;;12.05;5.75;;;10.20;99.90;;;;;;4920333;29;20048;-77
2023/03/16 02:13:23;;;;;;;6.90;5.30;;;10.00;99.90;;;;;;4952407;29;20019;-77
2023/03/16 02:15:50;;;;;;;10.02;4.93;;;10.10;99.90;;;;;;4938513;28;20034;-77
2023/03/16 02:18:16;;;;;;;7.80;4.72;;;10.20;99.90;;;;;;4939297;29;20027;-77
2023/03/16 02:21:06;;;;;;;14.18;5.28;;;10.20;99.90;;;;;;4955327;29;20032;-76
2023/03/16 02:23:32;;;;;;;12.43;5.10;;;10.10;99.90;;;;;;4955163;29;20035;-77
2023/03/16 02:26:10;;;;;;;9.52;5.30;;;10.00;99.90;;;;;;4954980;29;20039;-77
2023/03/16 02:28:47;;;;;;;10.90;5.90;;;9.80;99.90;;;;;;4955894;29;20035;-76
2023/03/16 02:31:14;;;;;;;9.90;5.28;;;9.60;99.90;;;;;;4951511;28;20047;-77
2023/03/16 02:33:40;;;;;;;10.05;5.28;;;9.70;99.90;;;;;;4920108;29;20034;-76
2023/03/16 02:36:07;;;;;;;12.70;5.55;;;9.70;99.90;;;;;;4919987;29;20043;-77
2023/03/16 02:38:33;;;;;;;9.73;5.50;;;9.70;99.90;;;;;;4935550;29;20044;-77
2023/03/16 02:41:11;;;;;;;11.27;5.30;;;9.70;99.90;;;;;;4904202;29;20501;-77
2023/03/16 02:43:38;;;;;;;8.13;5.28;;;9.90;99.90;;;;;;4919821;29;20035;-77
2023/03/16 02:46:04;;;;;;;6.72;5.15;;;9.80;99.90;;;;;;4934835;28;20413;-76
2023/03/16 02:48:32;;;;;;;10.93;5.05;;;9.80;99.90;;;;;;4935522;29;20032;-77
2023/03/16 02:50:58;;;;;;;11.35;5.80;;;9.90;99.90;;;;;;4935266;29;20031;-77
2023/03/16 02:53:24;;;;;;;6.78;5.35;;;9.90;99.90;;;;;;4935528;29;20046;-77
2023/03/16 02:55:50;;;;;;;10.57;5.38;;;9.70;99.90;;;;;;4935365;29;20098;-77
2023/03/16 02:58:16;;;;;;;8.48;5.07;;;9.60;99.90;;;;;;4936337;29;20047;-76
2023/03/16 03:00:44;;;;;;;6.72;4.50;;;9.60;99.90;;;;;;4902529;29;20482;-76
2023/03/16 03:03:10;;;;;;;12.65;5.38;;;9.70;99.90;;;;;;4919548;29;20474;-77
2023/03/16 03:05:36;;;;;;;9.52;5.28;;;9.80;99.90;;;;;;4934838;29;20058;-76
2023/03/16 03:08:03;;;;;;;11.02;5.35;;;9.90;99.90;;;;;;4935264;29;20044;-77
2023/03/16 03:10:29;;;;;;;7.63;5.68;;;9.60;99.90;;;;;;4919188;29;20048;-77
2023/03/16 03:12:56;;;;;;;11.32;6.10;;;9.50;99.90;;;;;;4948005;29;20031;-77
2023/03/16 03:15:22;;;;;;;12.00;5.45;;;9.50;99.90;;;;;;4937685;28;20373;-77
2023/03/16 03:17:48;;;;;;;8.15;5.90;;;9.60;99.90;;;;;;4954867;29;20035;-77
2023/03/16 03:20:16;;;;;;;9.82;6.30;;;9.50;99.90;;;;;;4938158;29;20035;-76
2023/03/16 03:22:51;;;;;;;9.15;6.00;;;9.40;99.90;;;;;;5069732;28;20407;-76
2023/03/16 03:25:17;;;;;;;10.15;6.30;;;9.20;99.90;;;;;;5071555;28;20028;-76
2023/03/16 03:27:44;;;;;;;8.60;5.90;;;9.30;99.90;;;;;;5088551;28;20032;-76
2023/03/16 03:30:11;;;;;;;7.53;6.07;;;9.20;99.90;;;;;;5085181;27;20029;-76
2023/03/16 03:32:38;;;;;;;12.27;6.07;;;9.20;99.90;;;;;;5033919;28;20044;-76
2023/03/16 03:35:05;;;;;;;10.60;6.35;;;9.00;99.90;;;;;;5045282;28;20033;-76
2023/03/16 03:37:31;;;;;;;11.60;6.70;;;9.00;99.90;;;;;;5029436;28;20061;-76
2023/03/16 03:39:57;;;;;;;14.85;5.88;;;8.90;99.90;;;;;;5028414;28;20030;-76
2023/03/16 03:42:23;;;;;;;9.52;6.05;;;8.90;99.90;;;;;;5044408;28;20044;-76
2023/03/16 03:44:51;;;;;;;11.60;6.63;;;8.80;99.90;;;;;;5028297;28;20025;-76
2023/03/16 03:47:18;;;;;;;8.98;6.07;;;8.90;99.90;;;;;;5044168;28;20037;-76
2023/03/16 03:49:44;;;;;;;7.10;5.97;;;9.00;99.90;;;;;;5011932;28;20037;-76
2023/03/16 03:52:10;;;;;;;9.10;6.07;;;9.20;99.90;;;;;;5028217;28;20029;-76
2023/03/16 03:54:36;;;;;;;9.52;5.85;;;9.30;99.90;;;;;;5027949;28;20022;-76
2023/03/16 03:57:03;;;;;;;9.15;6.15;;;9.30;99.90;;;;;;5028868;28;20030;-76
2023/03/16 03:59:29;;;;;;;10.00;6.10;;;9.20;99.90;;;;;;5028010;28;20025;-76
2023/03/16 04:01:56;;;;;;;10.70;5.65;;;9.20;99.90;;;;;;5043929;28;20057;-76
2023/03/16 04:04:22;;;;;;;8.65;5.95;;;9.10;99.90;;;;;;5027731;28;20529;-76
2023/03/16 04:06:49;;;;;;;7.97;6.07;;;9.00;99.90;;;;;;5029087;28;20030;-77
2023/03/16 04:09:16;;;;;;;11.43;6.32;;;9.00;99.90;;;;;;5027578;28;20045;-76
2023/03/16 04:11:42;;;;;;;8.90;6.47;;;9.00;99.90;;;;;;5027250;28;20034;-77
2023/03/16 04:14:08;;;;;;;8.00;6.35;;;9.00;99.90;;;;;;5027881;28;20471;-77
2023/03/16 04:16:34;;;;;;;12.50;5.80;;;9.10;99.90;;;;;;5028205;28;20037;-76
2023/03/16 04:19:00;;;;;;;10.30;6.10;;;9.10;99.90;;;;;;5027665;28;20486;-76
2023/03/16 04:21:27;;;;;;;8.77;5.72;;;9.00;99.90;;;;;;5027444;28;20050;-76
2023/03/16 04:23:53;;;;;;;8.43;5.90;;;8.80;99.90;;;;;;5029017;28;20042;-77
2023/03/16 04:26:20;;;;;;;11.75;5.93;;;8.70;99.90;;;;;;5038569;28;20037;-76
2023/03/16 04:28:46;;;;;;;8.25;5.63;;;8.60;99.90;;;;;;5048504;28;20040;-76
2023/03/16 04:31:12;;;;;;;12.40;5.90;;;8.60;99.90;;;;;;5030202;28;20033;-76
2023/03/16 04:33:39;;;;;;;9.73;5.68;;;8.50;99.90;;;;;;5036905;28;20386;-76
2023/03/16 04:36:05;;;;;;;12.52;6.25;;;8.50;99.90;;;;;;5017628;28;20033;-76
2023/03/16 04:38:35;;;;;;;7.50;6.05;;;8.50;99.90;;;;;;5035060;28;20037;-76
2023/03/16 04:41:02;;;;;;;12.70;6.32;;;8.50;99.90;;;;;;5033590;28;20025;-76
2023/03/16 04:43:28;;;;;;;9.38;5.93;;;8.40;99.90;;;;;;5017360;28;20463;-76
2023/03/16 04:45:54;;;;;;;10.25;6.60;;;8.30;99.90;;;;;;5033431;28;20036;-76
2023/03/16 04:48:20;;;;;;;9.30;6.90;;;8.30;99.90;;;;;;5033668;28;20360;-76
2023/03/16 04:50:47;;;;;;;10.82;6.28;;;8.20;99.90;;;;;;5033773;28;20029;-76
2023/03/16 04:53:13;;;;;;;12.43;6.63;;;8.40;99.90;;;;;;5035254;28;20038;-76
2023/03/16 04:55:40;;;;;;;12.57;6.60;;;8.40;99.90;;;;;;5034420;28;20351;-77
2023/03/16 04:58:06;;;;;;;15.30;7.18;;;8.30;99.90;;;;;;5034786;28;20029;-77
2023/03/16 05:00:32;;;;;;;13.95;7.05;;;8.30;99.90;;;;;;5034278;28;20044;-77
2023/03/16 05:02:58;;;;;;;10.55;7.22;;;8.20;99.90;;;;;;5033526;28;20081;-76
2023/03/16 05:05:25;;;;;;;13.43;7.57;;;8.20;99.90;;;;;;5034731;28;20044;-76
2023/03/16 05:07:51;;;;;;;12.65;7.38;;;8.10;99.90;;;;;;5034510;28;20029;-77
2023/03/16 05:10:20;;;;;;;15.63;7.60;;;8.20;99.90;;;;;;5034180;28;20025;-77
2023/03/16 05:12:46;;;;;;;13.88;7.35;;;8.20;99.90;;;;;;5005133;28;20030;-77
2023/03/16 05:15:12;;;;;;;13.07;7.70;;;8.20;99.90;;;;;;5014100;28;20038;-76
2023/03/16 05:17:40;;;;;;;11.70;8.55;;;8.20;99.90;;;;;;5029827;28;20037;-76
2023/03/16 05:20:11;;;;;;;13.67;7.73;;;8.20;99.90;;;;;;5029901;28;20026;-77
2023/03/16 05:22:40;;;;;;;12.30;6.85;;;8.00;99.90;;;;;;5012509;28;20042;-77
2023/03/16 05:25:06;;;;;;;8.98;7.47;;;8.00;99.90;;;;;;5014120;28;20022;-77
2023/03/16 05:27:33;;;;;;;14.45;7.53;;;8.00;99.90;;;;;;5016209;28;20041;-77
2023/03/16 05:30:00;;;;;;;13.23;8.03;;;8.00;99.90;;;;;;5032832;28;20045;-76
2023/03/16 05:32:26;;;;;;;14.43;7.27;;;8.10;99.90;;;;;;5033631;28;20045;-76
2023/03/16 05:34:52;;;;;;;11.07;7.40;;;8.10;99.90;;;;;;5016700;28;20092;-79
2023/03/16 05:37:18;;;;;;;12.07;8.17;;;7.90;99.90;;;;;;5033882;28;20029;-79
2023/03/16 05:39:44;;;;;;;13.90;7.90;;;7.80;99.90;;;;;;5032411;28;20033;-79
2023/03/16 05:42:10;;;;;;;13.93;7.28;;;7.80;99.90;;;;;;5033870;28;20390;-79
2023/03/16 05:44:36;;;;;;;12.50;6.40;;;7.80;99.90;;;;;;5032791;28;20018;-79
2023/03/16 05:47:03;;;;;;;12.20;6.80;;;7.80;99.90;;;;;;5032145;28;20029;-79
2023/03/16 05:49:30;;;;;;;15.88;7.28;;;7.80;99.90;;;;;;5033690;28;20032;-80
2023/03/16 05:51:56;;;;;;;13.03;6.93;;;7.80;99.90;;;;;;5032559;28;20029;-79
2023/03/16 05:54:22;;;;;;;7.83;5.40;;;7.70;99.90;;;;;;5033305;28;20029;-79
2023/03/16 05:56:48;;;;;;;12.63;6.13;;;7.60;99.90;;;;;;5032409;28;20034;-79
2023/03/16 05:59:16;;;;;;;10.40;5.88;;;7.70;99.90;;;;;;5032284;28;20056;-79
2023/03/16 06:01:42;;;;;;;11.57;6.50;;;7.80;99.90;;;;;;5033092;28;20049;-80
2023/03/16 06:04:08;;;;;;;8.82;6.22;;;7.80;99.90;;;;;;5032264;28;20097;-80
2023/03/16 06:06:34;;;;;;;14.23;7.00;;;7.80;99.90;;;;;;5033225;28;20037;-78
2023/03/16 06:09:01;;;;;;;13.85;6.65;;;7.70;99.90;;;;;;5015544;28;20037;-80
2023/03/16 06:11:27;;;;;;;9.13;6.67;;;7.70;99.90;;;;;;5014620;28;20037;-80
2023/03/16 06:13:56;;;;;;;9.93;6.07;;;7.70;99.90;;;;;;5013647;28;20042;-80
2023/03/16 06:16:23;;;;;;;8.77;6.27;;;7.70;99.90;;;;;;5012966;28;20050;-79
2023/03/16 06:18:50;;;;;;;12.10;6.28;;;7.70;99.90;;;;;;5013420;28;20052;-80
2023/03/16 06:21:16;;;;;;;14.13;6.77;;;7.60;99.90;;;;;;5013289;28;20057;-80
2023/03/16 06:23:42;;;;;;;9.70;6.67;;;7.50;99.90;;;;;;5011703;28;20061;-80
2023/03/16 06:26:08;;;;;;;9.03;5.50;;;7.50;99.90;;;;;;5022009;28;20033;-80
2023/03/16 06:28:34;;;;;;;9.87;5.87;;;7.40;99.90;;;;;;5031814;28;20154;-80
2023/03/16 06:31:00;;;;;;;11.50;6.30;;;7.20;99.90;;;;;;5031419;28;20033;-80
2023/03/16 06:33:26;;;;;;;10.97;6.57;;;7.20;99.90;;;;;;5015451;28;20391;-80
2023/03/16 06:35:52;;;;;;;7.77;5.37;;;7.10;99.90;;;;;;5032854;28;20033;-79
2023/03/16 06:38:18;;;;;;;11.87;6.40;;;7.10;99.90;;;;;;5031390;28;20034;-79
2023/03/16 06:40:44;;;;;;;6.30;4.80;;;7.00;99.90;;;;;;5015173;28;20025;-80
2023/03/16 06:43:11;;;;;;;12.83;6.30;;;6.90;99.90;;;;;;5031467;28;20042;-80
2023/03/16 06:45:37;;;;;;;9.83;5.53;;;6.90;99.90;;;;;;5031221;28;20034;-80
2023/03/16 06:48:03;;;;;;;13.97;6.57;;;6.90;99.90;;;;;;5032693;28;20493;-80
2023/03/16 06:50:30;;;;;;;12.40;6.20;;;7.00;99.90;;;;;;5032727;28;20052;-80
2023/03/16 06:52:56;;;;;;;14.10;6.80;;;7.00;99.90;;;;;;5032259;28;20028;-80
2023/03/16 06:55:22;;;;;;;12.83;6.90;;;7.10;99.90;;;;;;5032439;28;20033;-80
2023/03/16 06:57:48;;;;;;;10.93;6.60;;;7.10;99.90;;;;;;5032408;28;20029;-80
2023/03/16 07:00:14;;;;;;;15.10;7.03;;;7.20;99.90;;;;;;5032030;28;20037;-80
2023/03/16 07:02:42;;;;;;;12.87;6.50;;;7.30;99.90;;;;;;5014892;28;20042;-80
2023/03/16 07:05:11;;;;;;;9.60;6.30;;;7.30;99.90;;;;;;5031244;28;20021;-80
2023/03/16 07:07:41;;;;;;;11.73;6.93;;;7.30;99.90;;;;;;5031865;28;20033;-78
2023/03/16 07:10:11;;;;;;;11.93;6.93;;;7.50;99.90;;;;;;5031430;28;20044;-78
2023/03/16 07:12:38;;;;;;;14.13;6.63;;;7.70;99.90;;;;;;5019952;28;20037;-78
2023/03/16 07:15:04;;;;;;;11.50;6.10;;;7.60;99.90;;;;;;5027276;28;20386;-78
2023/03/16 07:17:31;;;;;;;10.40;6.47;;;7.60;99.90;;;;;;5012565;28;20480;-79
2023/03/16 07:19:57;;;;;;;11.07;5.97;;;7.50;99.90;;;;;;5027539;28;20041;-78
2023/03/16 07:22:23;;;;;;;13.67;6.40;;;7.50;99.90;;;;;;5010954;28;20052;-79
2023/03/16 07:24:55;;;;;;;17.60;6.83;;;7.50;99.90;;;;;;5012532;28;20378;-79
2023/03/16 07:27:23;;;;;;;9.93;6.43;;;7.80;99.90;;;;;;5007543;28;20504;-79
2023/03/16 07:29:50;;;;;;;10.53;5.60;;;8.10;99.90;;;;;;5008028;28;20034;-79
2023/03/16 07:32:17;;;;;;;12.82;6.20;;;8.20;99.90;;;;;;5007195;28;20394;-78
2023/03/16 07:34:43;;;;;;;14.15;6.90;;;8.30;99.90;;;;;;4991367;28;20042;-79
2023/03/16 07:37:09;;;;;;;9.23;6.50;;;8.20;99.90;;;;;;4992764;28;20048;-80
2023/03/16 07:39:36;;;;;;;11.02;6.40;;;8.40;99.90;;;;;;4992787;28;20496;-80
2023/03/16 07:42:02;;;;;;;9.02;5.60;;;8.60;99.90;;;;;;4991513;28;20042;-80
2023/03/16 07:44:30;;;;;;;12.63;6.25;;;8.70;99.90;;;;;;4991618;28;20022;-80
2023/03/16 07:46:56;;;;;;;11.82;5.57;;;8.90;99.90;;;;;;4991103;28;20041;-80
2023/03/16 07:49:22;;;;;;;11.98;5.35;;;9.00;99.90;;;;;;4991159;28;20477;-82
2023/03/16 07:51:48;;;;;;;13.27;5.13;;;9.10;99.90;;;;;;4991349;28;20035;-80
2023/03/16 07:54:14;;;;;;;12.25;5.03;;;9.20;99.90;;;;;;4992524;28;20467;-79
2023/03/16 07:56:40;;;;;;;6.65;4.88;;;9.20;99.90;;;;;;4992384;28;20026;-79
2023/03/16 07:59:06;;;;;;;10.50;5.25;;;9.20;99.90;;;;;;4975011;28;20043;-79
2023/03/16 08:01:33;;;;;;;9.13;5.15;;;9.20;99.90;;;;;;4992111;28;20034;-79
2023/03/16 08:04:00;;;;;;;13.07;5.20;;;9.30;99.90;;;;;;5007385;28;20030;-79
2023/03/16 08:06:26;;;;;;;11.00;4.93;;;9.40;99.90;;;;;;4992328;28;20026;-79
2023/03/16 08:08:53;;;;;;;10.35;5.25;;;9.40;99.90;;;;;;4995000;28;20030;-79
2023/03/16 08:11:22;;;;;;;6.30;4.35;;;9.50;99.90;;;;;;4996386;28;20026;-79
2023/03/16 08:13:52;;;;;;;12.40;5.47;;;9.60;99.90;;;;;;5014935;28;20049;-80
2023/03/16 08:16:22;;;;;;;8.27;5.30;;;9.70;99.90;;;;;;5029847;28;20398;-80
2023/03/16 08:18:49;;;;;;;10.75;6.43;;;9.90;99.90;;;;;;5014106;28;20101;-80
2023/03/16 08:21:18;;;;;;;12.55;4.85;;;10.20;99.90;;;;;;5014354;28;20054;-79
2023/03/16 08:23:48;;;;;;;7.13;4.53;;;10.50;99.90;;;;;;5011253;28;20058;-79
2023/03/16 08:26:16;;;;;;;10.75;4.85;;;10.70;99.90;;;;;;5017146;28;20022;-78
2023/03/16 08:28:44;;;;;;;7.78;4.75;;;10.90;99.90;;;;;;5034085;28;20025;-79
2023/03/16 08:31:12;;;;;;;7.20;4.20;;;11.10;99.90;;;;;;5034767;28;20375;-78
2023/03/16 08:33:39;;;;;;;10.25;4.45;;;11.00;99.90;;;;;;5033663;28;20044;-78
2023/03/16 08:36:07;;;;;;;6.60;3.70;;;11.00;99.90;;;;;;5033952;28;20036;-78
2023/03/16 08:38:34;;;;;;;5.88;4.20;;;11.20;99.90;;;;;;5033886;28;20029;-79
2023/03/16 08:41:00;;;;;;;8.27;4.78;;;11.30;99.90;;;;;;5033831;28;20033;-79
2023/03/16 08:43:27;;;;;;;8.77;4.90;;;11.60;99.90;;;;;;5034897;28;20044;-79
2023/03/16 08:45:53;;;;;;;8.77;5.13;;;11.70;99.90;;;;;;5033234;28;20030;-78
2023/03/16 08:48:19;;;;;;;5.55;4.38;;;11.90;99.90;;;;;;5033474;28;20044;-78
2023/03/16 08:50:45;;;;;;;8.90;4.35;;;12.00;99.90;;;;;;5017467;28;20029;-79
2023/03/16 08:53:12;;;;;;;7.97;4.47;;;12.20;99.90;;;;;;5034834;28;20045;-78
2023/03/16 08:55:40;;;;;;;9.32;4.70;;;12.30;99.90;;;;;;5033387;28;20463;-79
2023/03/16 08:58:07;;;;;;;6.53;4.57;;;12.50;99.90;;;;;;5035309;28;20045;-79
2023/03/16 09:00:34;;;;;;;7.93;4.97;;;12.90;99.90;;;;;;5033108;28;20391;-79
2023/03/16 09:03:01;;;;;;;6.45;4.75;;;13.20;99.90;;;;;;5034588;28;20052;-79
2023/03/16 09:05:27;;;;;;;5.78;4.93;;;13.40;99.90;;;;;;5033518;28;20352;-79
2023/03/16 09:07:54;;;;;;;7.25;4.35;;;13.20;99.90;;;;;;5034329;28;20420;-78
2023/03/16 09:10:21;;;;;;;7.40;4.30;;;12.90;99.90;;;;;;5033323;28;20028;-78
2023/03/16 09:12:51;;;;;;;5.57;4.55;;;13.00;99.90;;;;;;5004889;28;20032;-79
2023/03/16 09:15:18;;;;;;;10.10;5.20;;;13.20;99.90;;;;;;5013041;28;20033;-78
2023/03/16 09:17:45;;;;;;;8.50;4.82;;;13.30;99.90;;;;;;5013152;28;20022;-78
2023/03/16 09:20:12;;;;;;;7.03;5.50;;;13.30;99.90;;;;;;5014379;28;20381;-78
2023/03/16 09:22:39;;;;;;;10.23;5.22;;;13.20;99.90;;;;;;5014156;28;20058;-77
2023/03/16 09:25:05;;;;;;;6.18;4.53;;;13.30;99.90;;;;;;5015791;28;20026;-78
2023/03/16 09:27:32;;;;;;;8.68;5.22;;;13.30;99.90;;;;;;5032982;28;20477;-78
2023/03/16 09:29:59;;;;;;;6.57;5.07;;;13.50;99.90;;;;;;5016519;28;20028;-78
2023/03/16 09:32:27;;;;;;;7.40;5.53;;;13.60;99.90;;;;;;5015676;28;20029;-78
2023/03/16 09:34:53;;;;;;;7.38;5.20;;;13.80;99.90;;;;;;5032971;28;20478;-79
2023/03/16 09:37:20;;;;;;;8.23;4.50;;;14.00;99.90;;;;;;5032801;28;20032;-79
2023/03/16 09:39:47;;;;;;;7.45;4.82;;;14.20;99.90;;;;;;5032768;28;20025;-79
2023/03/16 09:42:31;;;;;;;5.55;4.38;;;14.40;99.90;;;;;;5032672;28;20034;-78
2023/03/16 09:45:16;;;;;;;5.68;4.65;;;14.70;99.90;;;;;;5032395;28;20359;-78
2023/03/16 09:47:42;;;;;;;7.32;4.47;;;14.80;99.90;;;;;;5033064;28;20030;-78
2023/03/16 09:50:15;;;;;;;5.35;4.50;;;15.00;99.90;;;;;;5016138;28;20486;-78
2023/03/16 09:52:47;;;;;;;6.25;4.85;;;15.10;99.90;;;;;;5032646;28;20413;-78
2023/03/16 09:55:32;;;;;;;5.72;4.40;;;15.40;99.90;;;;;;5033556;28;20036;-78
2023/03/16 09:57:59;;;;;;;6.43;3.90;;;15.20;99.90;;;;;;5032345;28;20032;-78
2023/03/16 10:00:29;;;;;;;5.50;4.15;;;15.30;99.90;;;;;;5032830;28;20025;-79
2023/03/16 10:03:07;;;;;;;6.18;4.00;;;15.50;99.90;;;;;;5016110;28;20060;-78
2023/03/16 10:05:33;;;;;;;5.35;4.47;;;15.80;99.90;;;;;;5032373;28;20463;-78
2023/03/16 10:08:06;;;;;;;7.55;5.00;;;16.00;99.90;;;;;;5032182;28;20606;-79
2023/03/16 10:10:48;;;;;;;5.90;5.20;;;16.20;99.90;;;;;;5033409;28;20029;-79
2023/03/16 10:13:29;;;;;;;5.68;5.18;;;16.40;99.90;;;;;;4996205;28;20058;-79
2023/03/16 10:15:55;;;;;;;9.63;5.22;;;16.40;99.90;;;;;;4993050;28;20045;-79
2023/03/16 10:18:27;;;;;;;5.45;4.35;;;16.30;99.90;;;;;;4992630;28;20476;-78
2023/03/16 10:20:54;;;;;;;6.00;4.22;;;16.00;99.90;;;;;;4993693;28;20042;-78
2023/03/16 10:23:23;;;;;;;4.68;4.18;;;16.20;99.90;;;;;;5004288;28;20046;-78
2023/03/16 10:25:52;;;;;;;8.20;4.38;;;16.10;99.90;;;;;;5020613;28;20042;-78
2023/03/16 10:28:27;;;;;;;6.80;4.05;;;16.00;99.90;;;;;;5015625;28;20034;-77
2023/03/16 10:30:55;;;;;;;5.93;4.65;;;16.10;99.90;;;;;;5030822;28;20034;-78
2023/03/16 10:33:26;;;;;;;4.22;3.75;;;16.30;99.90;;;;;;5015499;28;20040;-78
2023/03/16 10:35:54;;;;;;;5.68;4.55;;;16.50;99.90;;;;;;5031634;28;20021;-78
2023/03/16 10:38:45;;;;;;;4.20;3.78;;;16.60;99.90;;;;;;5031620;28;20036;-78
2023/03/16 10:41:19;;;;;;;8.38;4.40;;;16.70;99.90;;;;;;5032849;28;20371;-78
2023/03/16 10:43:50;;;;;;;7.97;4.38;;;16.50;99.90;;;;;;5031030;28;20033;-78
2023/03/16 10:46:16;;;;;;;4.43;4.00;;;16.60;99.90;;;;;;5030935;28;20406;-78
2023/03/16 10:48:59;;;;;;;5.90;4.35;;;16.30;99.90;;;;;;5031773;28;20030;-78
2023/03/16 10:51:28;;;;;;;4.50;4.10;;;16.30;99.90;;;;;;5016374;28;20033;-78
2023/03/16 10:53:57;;;;;;;4.30;4.00;;;16.60;99.90;;;;;;5015241;28;20517;-78
2023/03/16 10:56:26;;;;;;;5.43;4.30;;;16.80;99.90;;;;;;5015096;28;20040;-78
2023/03/16 10:58:53;;;;;;;4.75;4.25;;;17.00;99.90;;;;;;5032464;28;20044;-78
2023/03/16 11:01:26;;;;;;;9.20;5.03;;;17.10;99.90;;;;;;5030734;28;20033;-78
2023/03/16 11:03:54;;;;;;;5.38;4.88;;;17.20;99.90;;;;;;5031429;28;20064;-78
2023/03/16 11:06:29;;;;;;;8.80;5.18;;;17.40;99.90;;;;;;5014663;28;20045;-78
2023/03/16 11:09:07;;;;;;;5.47;4.63;;;17.60;99.90;;;;;;5032519;28;20037;-78
2023/03/16 11:11:33;;;;;;;5.65;4.43;;;17.40;99.90;;;;;;5013457;28;20029;-79
2023/03/16 11:14:01;;;;;;;6.47;4.03;;;17.10;99.90;;;;;;5027133;28;20490;-78
2023/03/16 11:16:37;;;;;;;4.50;3.78;;;17.30;99.90;;;;;;5027480;28;20053;-77
2023/03/16 11:19:11;;;;;;;5.93;4.25;;;17.10;99.90;;;;;;5011463;28;20037;-77
2023/03/16 11:21:45;;;;;;;9.80;4.57;;;16.90;99.90;;;;;;5028529;28;20054;-78
2023/03/16 11:24:28;;;;;;;10.27;4.90;;;16.90;99.90;;;;;;4994496;28;20050;-78
2023/03/16 11:26:59;;;;;;;5.13;4.47;;;17.20;99.90;;;;;;5012263;28;20034;-78
2023/03/16 11:29:44;;;;;;;6.65;4.38;;;17.20;99.90;;;;;;5014821;28;20044;-78
2023/03/16 11:32:13;;;;;;;5.85;4.68;;;17.20;99.90;;;;;;5015028;28;20044;-78
2023/03/16 11:34:39;;;;;;;5.20;4.68;;;17.40;99.90;;;;;;5014879;28;20033;-78
2023/03/16 11:37:34;;;;;;;7.88;4.90;;;17.20;99.90;;;;;;5014550;28;20037;-78
2023/03/16 11:40:15;;;;;;;4.80;3.95;;;17.20;99.90;;;;;;5030504;28;20045;-78
2023/03/16 11:42:45;;;;;;;5.13;4.32;;;17.20;99.90;;;;;;5031124;28;20474;-78
2023/03/16 11:45:20;;;;;;;7.95;4.65;;;17.40;99.90;;;;;;5035671;28;20026;-78
2023/03/16 11:48:26;;;;;;;5.97;4.95;;;17.60;99.90;;;;;;5036137;28;20025;-78
2023/03/16 11:50:55;;;;;;;5.20;4.70;;;18.00;99.90;;;;;;5018168;28;20034;-78
2023/03/16 11:53:37;;;;;;;5.53;5.00;;;18.30;99.90;;;;;;5034839;28;20032;-78
2023/03/16 11:56:11;;;;;;;5.80;4.68;;;18.10;99.90;;;;;;5035483;28;20101;-78
2023/03/16 11:59:14;;;;;;;5.70;4.47;;;18.30;99.90;;;;;;5034493;28;20485;-78
2023/03/16 12:01:59;;;;;;;6.93;4.88;;;18.30;99.90;;;;;;5034310;28;20124;-78
2023/03/16 12:04:49;;;;;;;5.70;4.00;;;18.10;99.90;;;;;;5035639;28;20037;-78
2023/03/16 12:07:50;;;;;;;7.35;4.95;;;18.10;99.90;;;;;;5035571;28;20385;-78
2023/03/16 12:10:33;;;;;;;6.38;4.90;;;18.20;99.90;;;;;;5035303;28;20033;-78
2023/03/16 12:13:15;;;;;;;4.95;4.55;;;18.10;99.90;;;;;;4989444;28;20042;-78
2023/03/16 12:15:54;;;;;;;6.75;4.70;;;18.10;99.90;;;;;;5031226;28;20030;-78
2023/03/16 12:18:26;;;;;;;10.05;4.93;;;18.10;99.90;;;;;;5032745;28;20026;-78
2023/03/16 12:21:11;;;;;;;4.97;3.97;;;18.30;99.90;;;;;;5014476;28;20041;-77
2023/03/16 12:23:48;;;;;;;4.68;4.28;;;18.40;99.90;;;;;;5030792;28;20038;-78
2023/03/16 12:26:16;;;;;;;6.18;4.43;;;18.50;99.90;;;;;;5024774;28;20029;-78
2023/03/16 12:28:42;;;;;;;6.00;4.72;;;18.50;99.90;;;;;;5034084;28;20032;-78
2023/03/16 12:31:33;;;;;;;5.40;4.15;;;18.60;99.90;;;;;;5017239;28;20026;-78
2023/03/16 12:34:08;;;;;;;5.90;4.03;;;18.70;99.90;;;;;;5035140;28;20025;-78
2023/03/16 12:36:43;;;;;;;9.32;4.80;;;18.80;99.90;;;;;;5035188;28;20222;-78
2023/03/16 12:39:23;;;;;;;5.68;4.32;;;18.60;99.90;;;;;;5033881;28;20040;-78
2023/03/16 12:42:08;;;;;;;5.13;4.40;;;18.60;99.90;;;;;;5033978;28;20033;-78
2023/03/16 12:44:53;;;;;;;4.22;3.92;;;18.60;99.90;;;;;;5034883;28;20222;-78
2023/03/16 12:47:28;;;;;;;5.78;4.57;;;18.80;99.90;;;;;;5034482;28;20033;-78
2023/03/16 12:49:55;;;;;;;6.65;5.90;;;18.90;99.90;;;;;;5033828;28;20034;-78
2023/03/16 12:52:21;;;;;;;4.95;4.45;;;19.20;99.90;;;;;;5017466;28;20029;-77
2023/03/16 12:55:12;;;;;;;6.50;5.72;;;19.20;99.90;;;;;;5033037;28;20458;-77
2023/03/16 12:57:41;;;;;;;4.72;4.32;;;19.50;99.90;;;;;;5032734;28;20056;-78
2023/03/16 13:00:09;;;;;;;5.20;4.70;;;19.60;99.90;;;;;;5033377;28;20387;-77